メインページ
METAR-TAF:

METAR-TAF

空港 :

帯広空港

帯広, 日本

緯度: 42-44N, 経度: 143-13E, 海抜: 149m

現時点の気象観測

当レポートは1時間14分前の11:00(UTC)に作成
変向風 1kt
気温 7°C
湿度 87%
気圧 1010 hPa
視程10km以上
高度2000ftの雲はほとんどない

METAR: RJCB 161100Z VRB01KT 9999 FEW020 07/05 Q1010

時間: 21:14 (12:14 UTC)

予報

当レポートは1時間8分前の11:06(UTC)に作成
予報は16日の 12時(UTC)から 17日の 18時(UTC)まで有効
北/北西の風 5kt
視程10km以上
高度1500ftの雲はほとんどない
17日の 12時(UTC)から 17日の 15時(UTC)まで徐々に
南東の風 5kt

TAF: RJCB 161106Z 1612/1718 34005KT 9999 FEW015 BECMG 1712/1715 13005KT

4,000以上の空港の気象観測と天気予報(METAR報とTAF報)

利用可能な観測所は地図上に黄色い丸と赤い丸で示す。

丸の上にカーソルを重ねると観測所名を参照できる。

次にクリックすると気象観測と天気予報を参照できる。

マップの切り替え:黒色「×」印の緑ボタンをクリックして拡大、「-」印の緑ボタンをクリックして縮小、緑色の三角印をクリックして隣りの地図に切り替え


METAR-TAF: